Time;durP1;ratioP1;P1;durP2;ratioP2;P2;SDS_P1;SDS_P2;PMS_P1;PMS_P2;Temp;Humidity;BMP_temperature;BMP_pressure;BME280_temperature;BME280_humidity;BME280_pressure;Samples;Min_cycle;Max_cycle;Signal;HPM_P1;HPM_P2
2024/04/07 00:00:02;;;;;;;0.30;0.20;;;18.80;99.90;;;;;;5088407;28;20194;-72
2024/04/07 00:02:27;;;;;;;0.67;0.67;;;18.70;99.90;;;;;;5087848;28;20207;-72
2024/04/07 00:04:53;;;;;;;1.03;1.03;;;18.70;99.90;;;;;;5089619;28;20464;-72
2024/04/07 00:07:19;;;;;;;0.40;0.40;;;18.70;99.90;;;;;;5088996;28;20214;-72
2024/04/07 00:09:44;;;;;;;0.77;0.77;;;18.60;99.90;;;;;;5089539;28;20182;-73
2024/04/07 00:12:10;;;;;;;0.83;0.80;;;18.60;99.90;;;;;;5089006;28;20178;-72
2024/04/07 00:14:36;;;;;;;0.50;0.47;;;18.60;99.90;;;;;;5089397;28;20171;-72
2024/04/07 00:17:03;;;;;;;2.13;1.90;;;18.50;99.90;;;;;;5088970;28;20224;-72
2024/04/07 00:19:29;;;;;;;0.70;0.50;;;18.40;99.90;;;;;;5087856;28;20839;-72
2024/04/07 00:21:55;;;;;;;0.30;0.30;;;18.40;99.90;;;;;;5089267;28;20421;-72
2024/04/07 00:24:20;;;;;;;1.17;1.07;;;18.30;99.90;;;;;;5089235;28;20827;-72
2024/04/07 00:26:46;;;;;;;1.33;0.77;;;18.30;99.90;;;;;;5087335;28;20507;-72
2024/04/07 00:29:12;;;;;;;0.40;0.30;;;18.20;99.90;;;;;;5088803;28;20215;-72
2024/04/07 00:31:38;;;;;;;0.50;0.50;;;18.20;99.90;;;;;;5087620;28;20207;-72
2024/04/07 00:34:04;;;;;;;0.30;0.20;;;18.10;99.90;;;;;;5087261;28;20209;-72
2024/04/07 00:36:29;;;;;;;0.37;0.37;;;18.10;99.90;;;;;;5088922;28;20457;-72
2024/04/07 00:38:55;;;;;;;0.30;0.30;;;18.00;99.90;;;;;;5087204;28;20620;-72
2024/04/07 00:41:21;;;;;;;1.63;1.20;;;18.00;99.90;;;;;;5088677;28;20170;-72
2024/04/07 00:43:47;;;;;;;0.63;0.63;;;18.00;99.90;;;;;;5086887;28;20496;-72
2024/04/07 00:46:12;;;;;;;0.60;0.57;;;17.90;99.90;;;;;;5088672;28;20175;-72
2024/04/07 00:48:38;;;;;;;0.30;0.30;;;17.90;99.90;;;;;;5086824;28;20209;-72
2024/04/07 00:51:04;;;;;;;0.40;0.33;;;17.80;99.90;;;;;;5088756;28;20218;-72
2024/04/07 00:53:31;;;;;;;0.30;0.20;;;17.80;99.90;;;;;;5088492;28;20216;-72
2024/04/07 00:55:56;;;;;;;1.17;1.03;;;17.80;99.90;;;;;;5088560;28;20438;-72
2024/04/07 00:58:22;;;;;;;0.50;0.50;;;17.80;99.90;;;;;;5086237;28;20465;-72
2024/04/07 01:00:48;;;;;;;0.40;0.40;;;17.80;99.90;;;;;;5087076;28;20197;-72
2024/04/07 01:03:17;;;;;;;0.30;0.20;;;17.70;99.90;;;;;;5088179;28;20752;-72
2024/04/07 01:05:47;;;;;;;0.47;0.47;;;17.70;99.90;;;;;;5088272;28;20196;-73
2024/04/07 01:08:15;;;;;;;0.97;0.97;;;17.70;99.90;;;;;;5086557;28;20852;-72
2024/04/07 01:10:41;;;;;;;0.40;0.40;;;17.70;99.90;;;;;;5086632;28;20407;-72
2024/04/07 01:13:08;;;;;;;0.30;0.20;;;17.70;99.90;;;;;;5086624;28;20533;-72
2024/04/07 01:15:34;;;;;;;0.40;0.30;;;17.60;99.90;;;;;;5087042;28;20424;-72
2024/04/07 01:18:00;;;;;;;1.23;0.87;;;17.60;99.90;;;;;;5087312;28;20481;-72
2024/04/07 01:20:28;;;;;;;1.13;1.03;;;17.60;99.90;;;;;;5086791;28;20464;-72
2024/04/07 01:22:53;;;;;;;0.30;0.20;;;17.60;99.90;;;;;;5087530;28;20439;-72
2024/04/07 01:25:20;;;;;;;1.23;1.23;;;17.50;99.90;;;;;;5088154;28;20476;-72
2024/04/07 01:27:59;;;;;;;0.40;0.37;;;17.50;99.90;;;;;;5087093;28;20292;-72
2024/04/07 01:30:26;;;;;;;0.77;0.63;;;17.50;99.90;;;;;;5086440;28;20472;-72
2024/04/07 01:32:51;;;;;;;0.60;0.60;;;17.50;99.90;;;;;;5087782;28;21010;-72
2024/04/07 01:35:17;;;;;;;0.30;0.20;;;17.50;99.90;;;;;;5088074;28;20711;-72
2024/04/07 01:37:43;;;;;;;2.37;1.33;;;17.40;99.90;;;;;;5085853;28;20201;-72
2024/04/07 01:40:10;;;;;;;0.40;0.33;;;17.40;99.90;;;;;;5087660;28;20213;-72
2024/04/07 01:42:38;;;;;;;0.30;0.20;;;17.40;99.90;;;;;;5087091;28;20224;-72
2024/04/07 01:45:04;;;;;;;0.30;0.20;;;17.40;99.90;;;;;;5086229;28;20840;-72
2024/04/07 01:47:30;;;;;;;1.50;1.13;;;17.40;99.90;;;;;;5085839;28;20459;-72
2024/04/07 01:49:56;;;;;;;1.07;0.97;;;17.30;99.90;;;;;;5086170;28;20409;-72
2024/04/07 01:52:22;;;;;;;0.73;0.73;;;17.30;99.90;;;;;;5087250;28;20193;-72
2024/04/07 01:54:47;;;;;;;1.00;0.90;;;17.30;99.90;;;;;;5087539;28;20507;-73
2024/04/07 01:57:13;;;;;;;1.17;1.17;;;17.20;99.90;;;;;;5086708;28;20533;-72
2024/04/07 01:59:38;;;;;;;7.97;2.83;;;17.20;99.90;;;;;;5086239;28;20301;-72
2024/04/07 02:02:04;;;;;;;0.30;0.20;;;17.20;99.90;;;;;;5086748;28;20181;-72
2024/04/07 02:04:30;;;;;;;0.43;0.40;;;17.20;99.90;;;;;;5085821;28;20220;-72
2024/04/07 02:06:56;;;;;;;0.37;0.37;;;17.20;99.90;;;;;;5087408;28;20196;-72
2024/04/07 02:09:22;;;;;;;0.93;0.93;;;17.20;99.90;;;;;;5086825;28;20786;-72
2024/04/07 02:11:48;;;;;;;0.30;0.30;;;17.20;99.90;;;;;;5086698;28;20457;-72
2024/04/07 02:14:13;;;;;;;0.40;0.30;;;17.20;99.90;;;;;;5085409;28;20529;-72
2024/04/07 02:16:39;;;;;;;0.30;0.30;;;17.20;99.90;;;;;;5085657;28;20432;-72
2024/04/07 02:19:06;;;;;;;0.30;0.20;;;17.30;99.90;;;;;;5085915;28;20258;-72
2024/04/07 02:21:32;;;;;;;0.60;0.60;;;17.20;99.90;;;;;;5085555;28;20189;-72
2024/04/07 02:23:57;;;;;;;0.30;0.20;;;17.30;99.90;;;;;;5086521;28;20480;-72
2024/04/07 02:26:23;;;;;;;0.97;0.97;;;17.30;99.90;;;;;;5086737;28;20945;-72
2024/04/07 02:28:49;;;;;;;0.63;0.63;;;17.20;99.90;;;;;;5084787;28;20561;-72
2024/04/07 02:31:15;;;;;;;0.30;0.20;;;17.20;99.90;;;;;;5086676;28;20168;-72
2024/04/07 02:33:41;;;;;;;0.30;0.20;;;17.20;99.90;;;;;;5085259;28;20216;-72
2024/04/07 02:36:07;;;;;;;0.30;0.30;;;17.20;99.90;;;;;;5086910;28;20414;-72
2024/04/07 02:38:32;;;;;;;3.60;0.83;;;17.20;99.90;;;;;;5084714;28;20578;-72
2024/04/07 02:40:59;;;;;;;1.80;0.87;;;17.20;99.90;;;;;;5086592;28;20412;-72
2024/04/07 02:43:24;;;;;;;0.60;0.50;;;17.20;99.90;;;;;;5084592;28;20216;-73
2024/04/07 02:48:34;;;;;;;0.60;0.50;;;17.20;99.90;;;;;;5086126;28;20482;-72
2024/04/07 02:51:00;;;;;;;3.27;1.03;;;17.20;99.90;;;;;;5085205;28;20992;-72
2024/04/07 02:53:26;;;;;;;0.40;0.30;;;17.10;99.90;;;;;;5084656;28;20582;-72
2024/04/07 02:55:51;;;;;;;0.40;0.30;;;17.10;99.90;;;;;;5086356;28;20216;-72
2024/04/07 02:58:17;;;;;;;0.30;0.30;;;17.10;99.90;;;;;;5085275;28;20465;-72
2024/04/07 03:00:42;;;;;;;0.30;0.30;;;17.10;99.90;;;;;;5085190;28;20190;-72
2024/04/07 03:03:08;;;;;;;0.53;0.53;;;17.10;99.90;;;;;;5085618;28;20215;-72
2024/04/07 03:05:38;;;;;;;0.40;0.30;;;17.10;99.90;;;;;;5086243;28;20653;-72
2024/04/07 03:08:05;;;;;;;0.60;0.60;;;17.10;99.90;;;;;;5085741;28;20212;-72
2024/04/07 03:10:31;;;;;;;0.43;0.40;;;17.10;99.90;;;;;;5085600;28;20393;-72
2024/04/07 03:12:56;;;;;;;0.60;0.60;;;17.10;99.90;;;;;;5085899;28;20443;-72
2024/04/07 03:15:22;;;;;;;0.83;0.77;;;17.10;99.90;;;;;;5085958;28;20393;-72
2024/04/07 03:17:48;;;;;;;0.50;0.50;;;17.10;99.90;;;;;;5085757;28;20348;-72
2024/04/07 03:20:13;;;;;;;0.30;0.20;;;17.00;99.90;;;;;;5084164;28;20172;-72
2024/04/07 03:22:39;;;;;;;1.13;1.13;;;17.00;99.90;;;;;;5085868;28;20218;-72
2024/04/07 03:25:04;;;;;;;0.40;0.33;;;17.00;99.90;;;;;;5085946;28;20219;-72
2024/04/07 03:27:30;;;;;;;0.30;0.30;;;17.00;99.90;;;;;;5085400;28;20276;-72
2024/04/07 03:29:56;;;;;;;0.50;0.50;;;16.90;99.90;;;;;;5084796;28;20180;-72
2024/04/07 03:32:21;;;;;;;0.60;0.60;;;16.90;99.90;;;;;;5085372;28;20211;-72
2024/04/07 03:34:47;;;;;;;1.60;1.07;;;16.90;99.90;;;;;;5085835;28;20176;-72
2024/04/07 03:37:13;;;;;;;2.53;0.83;;;16.90;99.90;;;;;;5085499;28;20629;-72
2024/04/07 03:39:39;;;;;;;0.50;0.40;;;16.90;99.90;;;;;;5086227;28;20517;-72
2024/04/07 03:42:05;;;;;;;0.30;0.30;;;16.80;99.90;;;;;;5085309;28;20470;-72
2024/04/07 03:44:32;;;;;;;0.40;0.40;;;16.90;99.90;;;;;;5085486;28;20800;-72
2024/04/07 03:46:58;;;;;;;1.23;0.70;;;16.80;99.90;;;;;;5085708;28;20405;-72
2024/04/07 03:49:25;;;;;;;0.40;0.40;;;16.80;99.90;;;;;;5085354;28;20510;-72
2024/04/07 03:51:51;;;;;;;0.40;0.40;;;16.80;99.90;;;;;;5083972;28;20477;-72
2024/04/07 03:54:18;;;;;;;0.30;0.20;;;16.80;99.90;;;;;;5083719;28;20531;-72
2024/04/07 03:56:43;;;;;;;0.40;0.40;;;16.80;99.90;;;;;;5084058;28;20428;-72
2024/04/07 03:59:09;;;;;;;1.17;1.10;;;16.80;99.90;;;;;;5085099;28;20475;-72
2024/04/07 04:01:35;;;;;;;0.30;0.30;;;16.80;99.90;;;;;;5085399;28;20215;-72
2024/04/07 04:04:01;;;;;;;0.77;0.77;;;16.80;99.90;;;;;;5083537;28;20315;-72
2024/04/07 04:06:28;;;;;;;8.10;2.20;;;16.80;99.90;;;;;;5084044;28;20520;-72
2024/04/07 04:08:53;;;;;;;2.00;1.90;;;16.80;99.90;;;;;;5083461;28;20200;-72
2024/04/07 04:11:19;;;;;;;2.17;2.07;;;16.80;99.90;;;;;;5085157;28;20416;-72
2024/04/07 04:13:49;;;;;;;0.67;0.67;;;16.80;99.90;;;;;;5083676;28;20205;-72
2024/04/07 04:16:17;;;;;;;2.60;0.93;;;16.80;99.90;;;;;;5085355;28;20440;-72
2024/04/07 04:18:43;;;;;;;0.33;0.30;;;16.70;99.90;;;;;;5084779;28;20444;-72
2024/04/07 04:21:10;;;;;;;1.43;1.33;;;16.70;99.90;;;;;;5085394;28;20898;-73
2024/04/07 04:23:37;;;;;;;0.30;0.20;;;16.70;99.90;;;;;;5084517;28;20475;-72
2024/04/07 04:26:03;;;;;;;0.37;0.37;;;16.70;99.90;;;;;;5085005;28;20909;-72
2024/04/07 04:28:29;;;;;;;0.30;0.30;;;16.70;99.90;;;;;;5084508;28;20497;-72
2024/04/07 04:31:05;;;;;;;0.50;0.47;;;16.70;99.90;;;;;;5085200;28;21054;-72
2024/04/07 04:33:31;;;;;;;0.30;0.30;;;16.70;99.90;;;;;;5084462;28;20237;-72
2024/04/07 04:35:57;;;;;;;0.30;0.20;;;16.70;99.90;;;;;;5083993;28;20824;-72
2024/04/07 04:38:22;;;;;;;0.77;0.70;;;16.70;99.90;;;;;;5084260;28;20219;-72
2024/04/07 04:40:58;;;;;;;0.40;0.33;;;16.70;99.90;;;;;;5085723;28;20303;-72
2024/04/07 04:43:24;;;;;;;0.77;0.77;;;16.80;99.90;;;;;;5086985;28;20212;-72
2024/04/07 04:46:06;;;;;;;0.47;0.47;;;16.80;99.90;;;;;;5087382;28;20519;-72
2024/04/07 04:48:33;;;;;;;0.40;0.40;;;16.80;99.90;;;;;;5088340;28;20712;-73
2024/04/07 04:50:59;;;;;;;0.67;0.67;;;16.80;99.90;;;;;;5087228;28;20636;-72
2024/04/07 04:53:24;;;;;;;2.00;1.90;;;16.80;99.90;;;;;;5088387;28;20586;-72
2024/04/07 04:55:51;;;;;;;1.33;0.73;;;16.90;99.90;;;;;;5088634;28;20457;-72
2024/04/07 04:58:16;;;;;;;0.30;0.20;;;16.90;99.90;;;;;;5086408;28;20244;-73
2024/04/07 05:00:42;;;;;;;2.67;1.40;;;16.90;99.90;;;;;;5088656;28;20489;-73
2024/04/07 05:03:08;;;;;;;0.93;0.93;;;16.90;99.90;;;;;;5087957;28;20232;-72
2024/04/07 05:05:33;;;;;;;2.10;2.00;;;16.90;99.90;;;;;;5088377;28;20161;-72
2024/04/07 05:07:59;;;;;;;0.73;0.73;;;17.00;99.90;;;;;;5087920;28;20207;-73
2024/04/07 05:10:25;;;;;;;1.13;1.13;;;17.00;99.90;;;;;;5088437;28;20202;-73
2024/04/07 05:12:50;;;;;;;2.40;2.20;;;17.10;99.90;;;;;;5087833;28;20208;-72
2024/04/07 05:15:16;;;;;;;0.40;0.40;;;17.10;99.90;;;;;;5087132;28;20172;-73
2024/04/07 05:17:46;;;;;;;0.37;0.30;;;17.20;99.90;;;;;;5086311;28;20246;-72
2024/04/07 05:20:14;;;;;;;1.40;1.30;;;17.30;99.90;;;;;;5086701;28;20953;-72
2024/04/07 05:22:40;;;;;;;0.90;0.90;;;17.40;99.90;;;;;;5086589;28;20499;-73
2024/04/07 05:25:06;;;;;;;1.53;1.43;;;17.40;99.90;;;;;;5088199;28;20553;-72
2024/04/07 05:27:32;;;;;;;1.07;1.00;;;17.50;99.90;;;;;;5087681;28;20492;-73
2024/04/07 05:29:58;;;;;;;0.43;0.43;;;17.60;99.90;;;;;;5085906;28;20429;-73
2024/04/07 05:32:24;;;;;;;0.60;0.60;;;17.60;99.90;;;;;;5086983;28;20440;-72
2024/04/07 05:34:49;;;;;;;1.00;0.90;;;17.70;99.90;;;;;;5088357;28;20191;-73
2024/04/07 05:37:15;;;;;;;0.67;0.67;;;17.80;99.90;;;;;;5087510;28;20658;-72
2024/04/07 05:39:51;;;;;;;0.30;0.30;;;17.90;99.90;;;;;;5087630;28;20189;-73
2024/04/07 05:42:19;;;;;;;0.40;0.40;;;17.90;99.90;;;;;;5087520;28;20180;-73
2024/04/07 05:44:45;;;;;;;2.33;2.23;;;18.00;99.90;;;;;;5086376;28;20750;-72
2024/04/07 05:47:12;;;;;;;0.70;0.70;;;18.10;99.90;;;;;;5087478;28;20463;-73
2024/04/07 05:49:41;;;;;;;1.53;1.43;;;18.20;99.90;;;;;;5087682;28;20422;-72
2024/04/07 05:52:07;;;;;;;0.60;0.60;;;18.20;99.90;;;;;;5085370;28;20435;-73
2024/04/07 05:54:33;;;;;;;0.93;0.93;;;18.30;99.90;;;;;;5084038;28;20660;-73
2024/04/07 05:56:59;;;;;;;0.73;0.73;;;18.40;99.90;;;;;;5084219;28;20966;-72
2024/04/07 05:59:24;;;;;;;0.63;0.63;;;18.40;99.90;;;;;;5083777;28;20499;-72
2024/04/07 06:01:50;;;;;;;0.83;0.83;;;18.50;99.90;;;;;;5083913;28;20690;-73
2024/04/07 06:04:16;;;;;;;0.30;0.30;;;18.60;99.90;;;;;;5085291;28;20226;-72
2024/04/07 06:06:41;;;;;;;1.13;0.90;;;18.60;99.90;;;;;;5084994;28;20522;-73
2024/04/07 06:09:07;;;;;;;1.23;1.03;;;18.70;99.90;;;;;;5086045;28;20374;-73
2024/04/07 06:11:33;;;;;;;0.90;0.70;;;18.80;99.90;;;;;;5086718;28;20179;-73
2024/04/07 06:13:59;;;;;;;0.50;0.50;;;18.80;99.90;;;;;;5086378;28;20507;-73
2024/04/07 06:16:25;;;;;;;0.30;0.20;;;19.00;99.90;;;;;;5085322;28;20195;-74
2024/04/07 06:18:53;;;;;;;0.30;0.20;;;19.00;99.90;;;;;;5086317;28;20916;-74
2024/04/07 06:21:21;;;;;;;0.30;0.30;;;19.10;99.90;;;;;;5086734;28;20579;-73
2024/04/07 06:23:47;;;;;;;0.70;0.70;;;19.30;99.90;;;;;;5086199;28;21106;-74
2024/04/07 06:26:13;;;;;;;1.13;1.13;;;19.40;99.90;;;;;;5084793;28;20756;-74
2024/04/07 06:28:39;;;;;;;0.30;0.20;;;19.60;99.90;;;;;;5086117;28;20513;-74
2024/04/07 06:31:05;;;;;;;1.53;1.43;;;19.70;99.90;;;;;;5086453;28;20461;-74
2024/04/07 06:33:31;;;;;;;0.30;0.30;;;19.90;99.90;;;;;;5085765;28;20452;-74
2024/04/07 06:35:59;;;;;;;1.80;1.67;;;20.00;99.90;;;;;;5086204;28;20177;-75
2024/04/07 06:38:25;;;;;;;0.30;0.30;;;20.10;99.90;;;;;;5086263;28;20289;-74
2024/04/07 06:40:51;;;;;;;0.50;0.50;;;20.20;99.90;;;;;;5086154;28;20437;-73
2024/04/07 06:43:17;;;;;;;0.37;0.30;;;20.30;99.90;;;;;;5084962;28;20216;-74
2024/04/07 06:45:43;;;;;;;0.33;0.30;;;20.40;99.90;;;;;;5084260;28;20423;-74
2024/04/07 06:48:09;;;;;;;2.83;2.70;;;20.50;99.90;;;;;;5084145;28;20256;-74
2024/04/07 06:50:35;;;;;;;0.53;0.50;;;20.60;99.90;;;;;;5084126;28;20504;-74
2024/04/07 06:53:01;;;;;;;0.40;0.30;;;20.60;99.90;;;;;;5085751;28;20363;-73
2024/04/07 06:55:27;;;;;;;0.93;0.83;;;20.70;99.90;;;;;;5083928;28;20571;-75
2024/04/07 06:57:54;;;;;;;0.70;0.70;;;20.80;99.90;;;;;;5084096;28;20470;-73
2024/04/07 07:00:19;;;;;;;0.30;0.20;;;20.90;99.90;;;;;;5100273;28;20429;-74
2024/04/07 07:02:45;;;;;;;0.30;0.20;;;21.00;99.90;;;;;;5085327;28;20451;-76
2024/04/07 07:05:10;;;;;;;0.30;0.20;;;21.10;99.90;;;;;;5085318;28;20251;-75
2024/04/07 07:07:36;;;;;;;0.40;0.30;;;21.20;99.90;;;;;;5085369;28;20218;-76
2024/04/07 07:10:03;;;;;;;0.30;0.20;;;21.30;99.90;;;;;;5085437;28;20204;-76
2024/04/07 07:12:33;;;;;;;0.40;0.33;;;21.40;99.90;;;;;;5084169;28;20436;-76
2024/04/07 07:14:58;;;;;;;0.30;0.20;;;21.40;99.90;;;;;;5085744;28;20405;-77
2024/04/07 07:17:24;;;;;;;1.43;1.33;;;21.50;99.90;;;;;;5085351;28;20448;-75
2024/04/07 07:19:50;;;;;;;0.63;0.63;;;21.60;99.90;;;;;;5083405;28;20188;-79
2024/04/07 07:22:16;;;;;;;0.30;0.30;;;21.70;99.90;;;;;;5083547;28;20203;-75
2024/04/07 07:24:41;;;;;;;0.30;0.20;;;21.90;99.90;;;;;;5085450;28;20822;-80
2024/04/07 07:27:07;;;;;;;0.53;0.53;;;22.00;99.90;;;;;;5084742;28;20257;-79
2024/04/07 07:29:33;;;;;;;0.30;0.30;;;22.00;99.90;;;;;;5085054;28;20195;-77
2024/04/07 07:31:58;;;;;;;1.10;0.53;;;22.10;99.90;;;;;;5083905;28;20259;-79
2024/04/07 07:34:24;;;;;;;0.30;0.30;;;22.20;99.90;;;;;;5084558;28;20205;-77
2024/04/07 07:36:50;;;;;;;0.87;0.83;;;22.30;99.90;;;;;;5084086;28;20234;-77
2024/04/07 07:39:17;;;;;;;0.90;0.87;;;22.30;99.90;;;;;;5084067;28;20449;-78
2024/04/07 07:41:43;;;;;;;2.97;2.77;;;22.40;99.90;;;;;;5084936;28;20998;-79
2024/04/07 07:44:09;;;;;;;0.30;0.30;;;22.50;99.90;;;;;;5084782;28;20525;-75
2024/04/07 07:46:34;;;;;;;0.43;0.43;;;22.60;99.90;;;;;;5083362;28;20437;-77
2024/04/07 07:49:00;;;;;;;0.43;0.43;;;22.70;99.90;;;;;;5083810;28;20232;-76
2024/04/07 07:51:26;;;;;;;0.53;0.53;;;22.70;99.90;;;;;;5085246;28;20188;-74
2024/04/07 07:53:52;;;;;;;0.33;0.33;;;22.90;99.90;;;;;;5083593;28;20455;-74
2024/04/07 07:56:19;;;;;;;0.73;0.73;;;23.10;99.90;;;;;;5085180;28;20270;-74
2024/04/07 07:58:45;;;;;;;0.50;0.50;;;23.20;99.90;;;;;;5083654;28;20476;-76
2024/04/07 08:01:10;;;;;;;3.63;1.93;;;23.20;99.90;;;;;;5085362;28;20511;-75
2024/04/07 08:03:36;;;;;;;0.40;0.40;;;23.30;99.90;;;;;;5083449;28;20206;-75
2024/04/07 08:06:03;;;;;;;0.50;0.50;;;23.40;99.90;;;;;;5084539;28;20240;-78
2024/04/07 08:08:29;;;;;;;0.50;0.50;;;23.50;99.90;;;;;;5084269;28;20203;-78
2024/04/07 08:10:55;;;;;;;0.87;0.87;;;23.50;99.90;;;;;;5083570;28;20431;-77
2024/04/07 08:13:20;;;;;;;0.60;0.60;;;23.30;99.70;;;;;;5082428;28;20206;-77
2024/04/07 08:15:46;;;;;;;1.57;1.47;;;23.20;99.50;;;;;;5085458;28;20284;-78
2024/04/07 08:18:12;;;;;;;0.83;0.83;;;23.20;99.60;;;;;;5086203;28;20206;-78
2024/04/07 08:20:39;;;;;;;0.47;0.47;;;23.20;99.70;;;;;;5086573;28;20207;-75
2024/04/07 08:23:05;;;;;;;0.80;0.80;;;23.40;99.90;;;;;;5086887;28;20812;-76
2024/04/07 08:25:31;;;;;;;1.37;1.37;;;23.60;99.90;;;;;;5088865;28;20442;-80
2024/04/07 08:27:57;;;;;;;0.40;0.40;;;23.70;99.90;;;;;;5089053;28;20538;-77
2024/04/07 08:30:22;;;;;;;0.60;0.60;;;23.90;99.90;;;;;;5088004;28;20509;-77
2024/04/07 08:32:48;;;;;;;0.77;0.77;;;24.10;99.20;;;;;;5086824;28;20231;-77
2024/04/07 08:35:14;;;;;;;0.77;0.77;;;24.20;99.00;;;;;;5087251;28;20592;-77
2024/04/07 08:37:40;;;;;;;1.33;0.97;;;24.40;98.80;;;;;;5088809;28;20483;-77
2024/04/07 08:40:07;;;;;;;0.77;0.77;;;24.50;98.60;;;;;;5087613;28;20179;-77
2024/04/07 08:42:33;;;;;;;0.47;0.47;;;24.80;99.60;;;;;;5087081;28;20459;-78
2024/04/07 08:45:02;;;;;;;0.40;0.40;;;25.20;98.50;;;;;;5089165;28;20448;-77
2024/04/07 08:47:31;;;;;;;1.17;1.07;;;25.70;97.70;;;;;;5086910;28;20614;-78
2024/04/07 08:49:57;;;;;;;0.87;0.70;;;26.00;96.50;;;;;;5087526;28;20405;-78
2024/04/07 08:52:23;;;;;;;1.57;1.47;;;26.20;96.00;;;;;;5088127;28;20787;-79
2024/04/07 08:54:49;;;;;;;0.50;0.50;;;26.40;95.80;;;;;;5088718;28;20420;-77
2024/04/07 08:57:16;;;;;;;0.83;0.83;;;26.50;95.10;;;;;;5087052;28;20937;-78
2024/04/07 08:59:46;;;;;;;0.40;0.30;;;26.60;94.40;;;;;;5087181;28;20833;-77
2024/04/07 09:02:17;;;;;;;1.27;1.27;;;26.60;94.20;;;;;;5088129;28;20440;-78
2024/04/07 09:04:43;;;;;;;1.03;1.03;;;26.60;94.10;;;;;;5087192;28;20665;-78
2024/04/07 09:07:10;;;;;;;0.40;0.30;;;26.70;94.70;;;;;;5086936;28;20917;-76
2024/04/07 09:09:36;;;;;;;0.40;0.37;;;26.70;93.80;;;;;;5087008;28;20673;-78
2024/04/07 09:12:03;;;;;;;0.87;0.87;;;26.70;93.70;;;;;;5086688;28;20501;-76
2024/04/07 09:14:32;;;;;;;0.40;0.30;;;26.70;93.40;;;;;;5088036;28;20490;-78
2024/04/07 09:17:06;;;;;;;0.93;0.93;;;26.70;93.60;;;;;;5087288;28;20951;-77
2024/04/07 09:19:36;;;;;;;0.40;0.30;;;26.70;93.00;;;;;;5088048;28;20457;-77
2024/04/07 09:22:03;;;;;;;1.63;1.00;;;26.70;93.00;;;;;;5086496;28;20420;-78
2024/04/07 09:24:30;;;;;;;0.80;0.80;;;26.60;92.80;;;;;;5086373;28;20476;-78
2024/04/07 09:27:00;;;;;;;0.50;0.50;;;26.60;93.20;;;;;;5085869;28;20441;-77
2024/04/07 09:29:30;;;;;;;0.60;0.60;;;26.60;92.80;;;;;;5085593;28;20475;-77
2024/04/07 09:31:56;;;;;;;0.97;0.97;;;26.70;93.00;;;;;;5087928;28;20409;-77
2024/04/07 09:34:22;;;;;;;0.60;0.50;;;26.80;92.80;;;;;;5087305;28;20471;-77
2024/04/07 09:36:48;;;;;;;1.00;1.00;;;26.90;92.40;;;;;;5087485;28;20438;-77
2024/04/07 09:39:14;;;;;;;0.70;0.53;;;27.00;92.90;;;;;;5087102;28;20909;-77
2024/04/07 09:41:42;;;;;;;0.57;0.57;;;27.00;92.20;;;;;;5085929;28;20634;-78
2024/04/07 09:44:10;;;;;;;0.40;0.30;;;26.80;92.00;;;;;;5086641;28;20477;-78
2024/04/07 09:46:40;;;;;;;0.77;0.77;;;26.80;92.10;;;;;;5087002;28;20534;-78
2024/04/07 09:49:09;;;;;;;4.80;1.70;;;26.60;91.90;;;;;;5086882;28;20478;-78
2024/04/07 09:51:43;;;;;;;2.40;2.30;;;26.60;92.10;;;;;;5087069;28;20466;-76
2024/04/07 09:54:40;;;;;;;0.30;0.20;;;26.50;91.90;;;;;;5085383;28;20826;-78
2024/04/07 09:57:10;;;;;;;0.40;0.40;;;26.50;91.90;;;;;;5086698;28;20814;-76
2024/04/07 09:59:38;;;;;;;0.70;0.70;;;26.60;92.20;;;;;;5086867;28;20552;-78
2024/04/07 10:02:04;;;;;;;0.30;0.20;;;26.70;91.50;;;;;;5086400;28;20925;-78
2024/04/07 10:04:34;;;;;;;0.67;0.67;;;26.70;91.50;;;;;;5086521;28;20484;-76
2024/04/07 10:07:02;;;;;;;0.30;0.20;;;26.80;90.80;;;;;;5086976;28;20427;-78
2024/04/07 10:09:29;;;;;;;0.50;0.50;;;26.70;91.30;;;;;;5086527;28;20423;-78
2024/04/07 10:11:55;;;;;;;1.30;1.20;;;26.60;91.30;;;;;;5085454;28;20425;-76
2024/04/07 10:14:22;;;;;;;0.60;0.60;;;26.60;91.30;;;;;;5086218;28;20532;-76
2024/04/07 10:16:51;;;;;;;1.27;1.17;;;26.60;91.20;;;;;;5085315;28;20200;-76
2024/04/07 10:19:26;;;;;;;0.97;0.97;;;26.60;91.20;;;;;;5086301;28;20446;-76
2024/04/07 10:21:52;;;;;;;1.03;0.80;;;26.60;91.20;;;;;;5086582;28;20762;-76
2024/04/07 10:24:18;;;;;;;0.73;0.67;;;26.60;91.20;;;;;;5085897;28;20507;-77
2024/04/07 10:26:59;;;;;;;0.70;0.60;;;26.50;91.10;;;;;;5086383;28;20423;-77
2024/04/07 10:29:26;;;;;;;0.53;0.53;;;26.40;91.10;;;;;;5085955;28;20204;-76
2024/04/07 10:31:51;;;;;;;0.73;0.73;;;26.40;91.10;;;;;;5086057;28;20412;-76
2024/04/07 10:34:17;;;;;;;1.23;1.23;;;26.30;91.30;;;;;;5084519;28;20457;-78
2024/04/07 10:36:55;;;;;;;1.63;1.50;;;26.30;91.20;;;;;;5085927;28;20642;-78
2024/04/07 10:39:21;;;;;;;1.43;1.07;;;26.30;91.50;;;;;;5084278;28;20208;-76
2024/04/07 10:41:47;;;;;;;0.63;0.63;;;26.40;91.40;;;;;;5084817;28;20413;-78
2024/04/07 10:44:13;;;;;;;1.03;1.00;;;26.40;91.70;;;;;;5085523;28;20837;-78
2024/04/07 10:46:38;;;;;;;0.30;0.30;;;26.50;92.30;;;;;;5086312;28;20187;-78
2024/04/07 10:49:05;;;;;;;1.30;1.20;;;26.60;91.50;;;;;;5084613;28;20292;-78
2024/04/07 10:51:34;;;;;;;1.27;1.17;;;26.60;91.30;;;;;;5086118;28;20192;-78
2024/04/07 10:54:04;;;;;;;1.43;0.83;;;26.60;91.30;;;;;;5085754;28;20684;-78
2024/04/07 10:56:31;;;;;;;0.93;0.87;;;26.60;90.90;;;;;;5084172;28;20585;-78
2024/04/07 10:58:57;;;;;;;0.50;0.50;;;26.50;90.90;;;;;;5084180;28;20552;-76
2024/04/07 11:01:24;;;;;;;1.03;0.93;;;26.40;90.90;;;;;;5084247;28;20433;-77
2024/04/07 11:03:57;;;;;;;0.30;0.20;;;26.50;91.40;;;;;;5085242;28;20472;-77
2024/04/07 11:06:23;;;;;;;0.37;0.37;;;26.60;91.60;;;;;;5084343;28;20429;-76
2024/04/07 11:08:50;;;;;;;0.40;0.30;;;26.70;91.70;;;;;;5085225;28;20449;-76
2024/04/07 11:11:16;;;;;;;0.30;0.20;;;26.80;91.60;;;;;;5084369;28;20422;-76
2024/04/07 11:13:42;;;;;;;0.40;0.40;;;26.80;90.80;;;;;;5085249;28;21026;-78
2024/04/07 11:16:11;;;;;;;0.73;0.73;;;26.80;91.70;;;;;;5084203;28;20513;-77
2024/04/07 11:18:37;;;;;;;1.70;0.80;;;26.70;90.80;;;;;;5085249;28;20499;-78
2024/04/07 11:21:04;;;;;;;2.87;1.03;;;26.70;90.90;;;;;;5085849;28;20417;-77
2024/04/07 11:23:30;;;;;;;1.13;1.03;;;26.60;90.70;;;;;;5084703;28;20458;-78
2024/04/07 11:25:56;;;;;;;0.70;0.70;;;26.70;90.80;;;;;;5085363;28;20433;-77
2024/04/07 11:28:24;;;;;;;2.20;1.13;;;26.70;90.70;;;;;;5082941;28;20718;-78
2024/04/07 11:30:51;;;;;;;0.50;0.50;;;26.80;90.70;;;;;;5083636;28;20602;-78
2024/04/07 11:33:17;;;;;;;0.73;0.73;;;26.70;90.50;;;;;;5082814;28;20460;-78
2024/04/07 11:35:44;;;;;;;0.77;0.77;;;26.70;90.40;;;;;;5083899;28;20405;-78
2024/04/07 11:38:11;;;;;;;0.30;0.20;;;26.70;90.30;;;;;;5084813;28;20728;-78
2024/04/07 11:40:38;;;;;;;0.40;0.33;;;26.80;90.60;;;;;;5083722;28;20639;-78
2024/04/07 11:43:04;;;;;;;1.07;1.07;;;26.90;90.50;;;;;;5084425;28;20970;-77
2024/04/07 11:45:30;;;;;;;0.57;0.57;;;27.00;90.30;;;;;;5083422;28;20404;-78
2024/04/07 11:47:56;;;;;;;0.60;0.60;;;26.90;90.00;;;;;;5084606;28;20218;-79
2024/04/07 11:50:22;;;;;;;0.73;0.73;;;26.90;90.10;;;;;;5084917;28;20390;-78
2024/04/07 11:52:48;;;;;;;3.33;3.00;;;26.80;89.90;;;;;;5083276;28;20439;-77
2024/04/07 11:55:14;;;;;;;0.70;0.70;;;26.70;90.20;;;;;;5084863;28;20416;-78
2024/04/07 11:57:40;;;;;;;0.30;0.20;;;26.70;90.00;;;;;;5083275;28;20547;-78
2024/04/07 12:00:09;;;;;;;0.40;0.40;;;26.80;90.10;;;;;;5084699;28;20444;-77
2024/04/07 12:02:35;;;;;;;0.40;0.40;;;26.80;90.00;;;;;;5083182;28;20505;-77
2024/04/07 12:05:02;;;;;;;0.40;0.40;;;26.90;90.00;;;;;;5082604;28;20528;-77
2024/04/07 12:07:29;;;;;;;0.60;0.60;;;26.90;89.80;;;;;;5082553;28;20445;-77
2024/04/07 12:09:55;;;;;;;0.40;0.40;;;26.90;90.00;;;;;;5081689;28;21051;-77
2024/04/07 12:12:21;;;;;;;0.40;0.40;;;27.00;89.80;;;;;;5081681;28;20454;-77
2024/04/07 12:14:47;;;;;;;0.50;0.50;;;27.00;89.40;;;;;;5083075;28;20503;-78
2024/04/07 12:17:13;;;;;;;1.63;0.70;;;27.00;89.30;;;;;;5081424;28;20430;-77
2024/04/07 12:19:39;;;;;;;0.40;0.40;;;27.00;89.00;;;;;;5083563;28;20936;-78
2024/04/07 12:22:14;;;;;;;0.40;0.40;;;27.20;89.30;;;;;;5083441;28;20176;-77
2024/04/07 12:24:39;;;;;;;0.40;0.40;;;27.20;89.10;;;;;;5084620;28;20214;-78
2024/04/07 12:27:06;;;;;;;0.40;0.40;;;27.20;89.50;;;;;;5084209;28;20433;-78
2024/04/07 12:29:31;;;;;;;0.40;0.40;;;27.30;89.30;;;;;;5083231;28;20633;-77
2024/04/07 12:31:57;;;;;;;0.70;0.57;;;27.30;89.00;;;;;;5083070;28;20508;-77
2024/04/07 12:34:23;;;;;;;0.30;0.30;;;27.30;88.80;;;;;;5082867;28;20205;-77
2024/04/07 12:36:48;;;;;;;0.40;0.40;;;27.30;89.40;;;;;;5084683;28;20389;-78
2024/04/07 12:39:15;;;;;;;0.50;0.50;;;27.30;88.60;;;;;;5084223;28;20204;-77
2024/04/07 12:41:42;;;;;;;0.40;0.40;;;27.30;88.30;;;;;;5084817;28;20175;-77
2024/04/07 12:44:08;;;;;;;0.40;0.30;;;27.30;88.60;;;;;;5082617;28;20535;-77
2024/04/07 12:46:33;;;;;;;0.40;0.37;;;27.10;88.30;;;;;;5084674;28;20498;-77